Aeroporto :
LOGIN :

Iscrizione | Disclaimer

   EN    FR    IT 

 










Sommario :    VFR   VFR Marginale   IFR   IFR Intensivo   IFR Molto Intensivo
Visibilità : 
Base nubi : 
>= 8 km
>= 3000ft
5 / 8 km
1000 / 3000 ft
1500m / 5 km
500 / 1000 ft
800 / 1500m
200 / 500 ft
< 800m
< 200 ft
Simboli :   Temporali  Nebbia  Neve Forte  Precipitazioni Forti  Vento > 20 kt
SIGMETs :   Varie  Temporali  Ghiacco  Turbolenza  Onda orograficha  Ceneri Vulcaniche






- Altitudine del aeroporto : 939 ft


LKKB - Kbely Air Base

ULTIMO METAR :
  • 270630Z VRB02KT CAVOK 13/08 Q1033 NOSIG

METARs OBSOLETI :
  • 270600Z 21004KT CAVOK 11/08 Q1033 NOSIG
  • 270530Z 20003KT CAVOK 09/07 Q1033 NOSIG
  • 270500Z 20004KT CAVOK 08/06 Q1033 NOSIG
  • 270430Z 22003KT CAVOK 07/06 Q1033 NOSIG

TAF TAF LKKB
Valido dal 27 a 06 ore il 28 a 06 ore UTC


270500Z 2706/2806 22003KT CAVOK
BECMG 2706/2709 33007KT
TEMPO 2708/2712 SCT030
TEMPO 2710/2718 35014KT
TEMPO 2803/2806 6000 RA SCT015 BKN020



MetMap, La meteo Aeronautica in un colpo d'occhio ! - Copyright ORBIFLY Dicembre 2007 - Disclaimer

ORBIFLY MET'MAP TEAM :

Programmazione e sviluppo : Alexandra Zaïnal
Concezione : Baudouin d'Aumeries
Aiuto per la programmazione : Marc-Olivier Méhu
Supporto tecnico e logistico : Manuel Goepfert
Aiuto per la traduzione : Arnaldo La Scala

Contatto : metmap@orbifly.com




FONTI E CREDITI :

   NOAA